EZY50GT LPPT-LFPO
Flight info
| Callsign | EZY50GT |
|---|---|
| Flight time | 2h 4m |
| Altitude | 38000 |
| Route | IXIDA DCT TOSDI DCT ZMR DCT NEA DCT DGO N858 ABRIX DCT CNA DCT TUDRA DCT BEVOL/N0387F280 UT158 AMB |
| Aircraft | A320/M-SDE3FGHIRWY/LB1 |
Departure
| Time | 2026-05-07 20:31 |
|---|---|
| Airport | Lisbon Humberto Delgado Airport (LPPT) |
Arrival
| Time | 2026-05-07 22:35 |
|---|---|
| Airport | Paris-Orly Airport (LFPO) |
| Time | Latitude | Longitude | Altitude | Speed | Heading |
|---|---|---|---|---|---|
| 2026-05-07 19:45 | 38.76452 | -9.13780 | 356 ft | 0 kts | 168° |
| 2026-05-07 20:20 | 38.76466 | -9.13784 | 358 ft | 3 kts | 168° |
| 2026-05-07 20:20 | 38.76486 | -9.13789 | 358 ft | 3 kts | 169° |
| 2026-05-07 20:20 | 38.76506 | -9.13793 | 352 ft | 3 kts | 185° |
| 2026-05-07 20:20 | 38.76524 | -9.13787 | 352 ft | 3 kts | 219° |
| 2026-05-07 20:21 | 38.76534 | -9.13771 | 353 ft | 1 kts | 258° |
| 2026-05-07 20:25 | 38.76534 | -9.13774 | 348 ft | 2 kts | 258° |
| 2026-05-07 20:26 | 38.76527 | -9.13814 | 351 ft | 8 kts | 258° |
| 2026-05-07 20:26 | 38.76516 | -9.13881 | 347 ft | 6 kts | 260° |
| 2026-05-07 20:26 | 38.76552 | -9.13933 | 347 ft | 11 kts | 334° |
| 2026-05-07 20:26 | 38.76548 | -9.14028 | 354 ft | 14 kts | 236° |
| 2026-05-07 20:27 | 38.76495 | -9.14128 | 349 ft | 14 kts | 255° |
| 2026-05-07 20:27 | 38.76524 | -9.14259 | 337 ft | 16 kts | 294° |
| 2026-05-07 20:27 | 38.76534 | -9.14291 | 335 ft | 0 kts | 291° |
| 2026-05-07 20:29 | 38.76535 | -9.14294 | 335 ft | 1 kts | 291° |
| 2026-05-07 20:29 | 38.76541 | -9.14315 | 336 ft | 4 kts | 291° |
| 2026-05-07 20:29 | 38.76556 | -9.14359 | 335 ft | 7 kts | 297° |
| 2026-05-07 20:29 | 38.76601 | -9.14399 | 334 ft | 9 kts | 350° |
| 2026-05-07 20:30 | 38.76668 | -9.14374 | 336 ft | 11 kts | 22° |
| 2026-05-07 20:30 | 38.76786 | -9.14315 | 336 ft | 39 kts | 21° |
| 2026-05-07 20:30 | 38.77316 | -9.14037 | 361 ft | 124 kts | 24° |
| 2026-05-07 20:30 | 38.78311 | -9.13499 | 569 ft | 172 kts | 24° |
| 2026-05-07 20:31 | 38.79423 | -9.12765 | 1378 ft | 186 kts | 26° |
| 2026-05-07 20:31 | 38.80564 | -9.11928 | 2039 ft | 195 kts | 27° |
| 2026-05-07 20:31 | 38.81802 | -9.11029 | 2604 ft | 212 kts | 25° |
| 2026-05-07 20:31 | 38.83181 | -9.10109 | 3088 ft | 235 kts | 25° |
| 2026-05-07 20:32 | 38.84699 | -9.09079 | 3593 ft | 256 kts | 26° |
| 2026-05-07 20:32 | 38.86272 | -9.07966 | 4385 ft | 266 kts | 27° |
| 2026-05-07 20:32 | 38.87901 | -9.06770 | 5239 ft | 273 kts | 30° |
| 2026-05-07 20:32 | 38.89397 | -9.05225 | 6053 ft | 281 kts | 46° |
| 2026-05-07 20:33 | 38.90775 | -9.03398 | 6886 ft | 287 kts | 47° |
| 2026-05-07 20:33 | 38.92186 | -9.01509 | 7747 ft | 292 kts | 48° |
| 2026-05-07 20:33 | 38.93585 | -8.99627 | 8588 ft | 297 kts | 49° |
| 2026-05-07 20:33 | 38.95024 | -8.97690 | 9457 ft | 302 kts | 49° |
| 2026-05-07 20:34 | 38.96486 | -8.95724 | 10240 ft | 309 kts | 49° |
| 2026-05-07 20:34 | 38.98026 | -8.93646 | 10526 ft | 333 kts | 49° |
| 2026-05-07 20:34 | 38.99664 | -8.91436 | 11019 ft | 347 kts | 49° |
| 2026-05-07 20:34 | 39.01345 | -8.89174 | 11737 ft | 353 kts | 49° |
| 2026-05-07 20:35 | 39.03053 | -8.86882 | 12497 ft | 357 kts | 49° |
| 2026-05-07 20:35 | 39.04782 | -8.84558 | 13253 ft | 362 kts | 49° |
| 2026-05-07 20:35 | 39.06534 | -8.82203 | 13964 ft | 366 kts | 49° |
| 2026-05-07 20:35 | 39.08307 | -8.79817 | 14606 ft | 371 kts | 49° |
| 2026-05-07 20:36 | 39.10097 | -8.77403 | 15228 ft | 375 kts | 49° |
| 2026-05-07 20:36 | 39.11913 | -8.74954 | 15864 ft | 380 kts | 49° |
| 2026-05-07 20:36 | 39.13746 | -8.72478 | 16500 ft | 384 kts | 49° |
| 2026-05-07 20:36 | 39.15594 | -8.69976 | 17121 ft | 388 kts | 49° |
| 2026-05-07 20:37 | 39.17467 | -8.67439 | 17758 ft | 393 kts | 49° |
| 2026-05-07 20:37 | 39.19362 | -8.64872 | 18358 ft | 397 kts | 49° |
| 2026-05-07 20:37 | 39.21277 | -8.62278 | 18885 ft | 401 kts | 48° |
| 2026-05-07 20:37 | 39.23207 | -8.59662 | 19436 ft | 404 kts | 48° |
| 2026-05-07 20:38 | 39.25151 | -8.57023 | 19957 ft | 408 kts | 48° |
| 2026-05-07 20:38 | 39.27116 | -8.54353 | 20478 ft | 412 kts | 48° |
| 2026-05-07 20:38 | 39.29101 | -8.51649 | 20992 ft | 416 kts | 48° |
| 2026-05-07 20:38 | 39.31099 | -8.48930 | 21494 ft | 419 kts | 48° |
| 2026-05-07 20:39 | 39.33114 | -8.46183 | 21979 ft | 423 kts | 48° |
| 2026-05-07 20:39 | 39.35147 | -8.43408 | 22481 ft | 427 kts | 48° |
| 2026-05-07 20:39 | 39.37197 | -8.40606 | 22973 ft | 431 kts | 47° |
| 2026-05-07 20:39 | 39.39266 | -8.37780 | 23434 ft | 435 kts | 47° |
| 2026-05-07 20:40 | 39.41360 | -8.34922 | 23834 ft | 439 kts | 47° |
| 2026-05-07 20:40 | 39.43469 | -8.32038 | 24231 ft | 442 kts | 47° |
| 2026-05-07 20:40 | 39.45582 | -8.29144 | 24635 ft | 445 kts | 47° |
| 2026-05-07 20:40 | 39.47716 | -8.26217 | 25013 ft | 447 kts | 47° |
| 2026-05-07 20:41 | 39.49824 | -8.23321 | 25410 ft | 450 kts | 47° |
| 2026-05-07 20:41 | 39.51977 | -8.20359 | 25796 ft | 453 kts | 47° |
| 2026-05-07 20:41 | 39.54143 | -8.17374 | 26182 ft | 456 kts | 47° |
| 2026-05-07 20:41 | 39.56320 | -8.14372 | 26568 ft | 458 kts | 47° |
| 2026-05-07 20:42 | 39.58508 | -8.11352 | 26957 ft | 461 kts | 47° |
| 2026-05-07 20:42 | 39.60707 | -8.08311 | 27324 ft | 463 kts | 47° |
| 2026-05-07 20:42 | 39.62917 | -8.05253 | 27691 ft | 466 kts | 47° |
| 2026-05-07 20:42 | 39.65141 | -8.02178 | 28058 ft | 469 kts | 47° |
| 2026-05-07 20:43 | 39.67404 | -7.99116 | 28416 ft | 471 kts | 45° |
| 2026-05-07 20:43 | 39.69741 | -7.96113 | 28778 ft | 474 kts | 44° |
| 2026-05-07 20:43 | 39.72131 | -7.93150 | 29151 ft | 476 kts | 43° |
| 2026-05-07 20:43 | 39.74549 | -7.90191 | 29486 ft | 479 kts | 43° |
| 2026-05-07 20:44 | 39.76979 | -7.87208 | 29829 ft | 481 kts | 43° |
| 2026-05-07 20:44 | 39.79406 | -7.84193 | 30132 ft | 484 kts | 43° |
| 2026-05-07 20:44 | 39.81802 | -7.81186 | 30403 ft | 486 kts | 43° |
| 2026-05-07 20:44 | 39.84233 | -7.78114 | 30664 ft | 488 kts | 43° |
| 2026-05-07 20:45 | 39.86670 | -7.75013 | 30920 ft | 490 kts | 43° |
| 2026-05-07 20:45 | 39.89112 | -7.71891 | 31168 ft | 493 kts | 43° |
| 2026-05-07 20:45 | 39.91559 | -7.68756 | 31449 ft | 494 kts | 43° |
| 2026-05-07 20:45 | 39.94015 | -7.65616 | 31818 ft | 493 kts | 43° |
| 2026-05-07 20:46 | 39.96465 | -7.62496 | 32170 ft | 493 kts | 43° |
| 2026-05-07 20:46 | 39.98927 | -7.59367 | 32517 ft | 493 kts | 43° |
| 2026-05-07 20:46 | 40.01383 | -7.56248 | 32870 ft | 493 kts | 43° |
| 2026-05-07 20:46 | 40.03841 | -7.53127 | 33229 ft | 493 kts | 43° |
| 2026-05-07 20:47 | 40.06293 | -7.50004 | 33576 ft | 493 kts | 43° |
| 2026-05-07 20:47 | 40.08736 | -7.46875 | 33917 ft | 492 kts | 43° |
| 2026-05-07 20:47 | 40.11180 | -7.43738 | 34219 ft | 492 kts | 42° |
| 2026-05-07 20:47 | 40.13622 | -7.40597 | 34508 ft | 493 kts | 42° |
| 2026-05-07 20:48 | 40.16066 | -7.37452 | 34766 ft | 493 kts | 42° |
| 2026-05-07 20:48 | 40.18514 | -7.34303 | 35032 ft | 494 kts | 42° |
| 2026-05-07 20:48 | 40.20965 | -7.31155 | 35292 ft | 494 kts | 42° |
| 2026-05-07 20:48 | 40.23419 | -7.28004 | 35549 ft | 494 kts | 42° |
| 2026-05-07 20:49 | 40.25842 | -7.24890 | 35765 ft | 495 kts | 42° |
| 2026-05-07 20:49 | 40.28297 | -7.21725 | 36023 ft | 495 kts | 42° |
| 2026-05-07 20:49 | 40.30757 | -7.18546 | 36259 ft | 496 kts | 42° |
| 2026-05-07 20:49 | 40.33213 | -7.15369 | 36486 ft | 496 kts | 41° |
| 2026-05-07 20:50 | 40.35670 | -7.12184 | 36714 ft | 497 kts | 41° |
| 2026-05-07 20:50 | 40.38127 | -7.08999 | 36938 ft | 497 kts | 41° |
| 2026-05-07 20:50 | 40.40586 | -7.05805 | 37146 ft | 498 kts | 41° |
| 2026-05-07 20:50 | 40.43053 | -7.02598 | 37356 ft | 498 kts | 41° |
| 2026-05-07 20:51 | 40.45515 | -6.99395 | 37567 ft | 499 kts | 41° |
| 2026-05-07 20:51 | 40.47981 | -6.96184 | 37804 ft | 499 kts | 41° |
| 2026-05-07 20:51 | 40.50444 | -6.92975 | 37910 ft | 499 kts | 41° |
| 2026-05-07 20:52 | 40.55378 | -6.86545 | 37920 ft | 498 kts | 41° |
| 2026-05-07 20:52 | 40.60293 | -6.80117 | 37916 ft | 498 kts | 41° |
| 2026-05-07 20:53 | 40.65171 | -6.73725 | 37913 ft | 497 kts | 41° |
| 2026-05-07 20:53 | 40.70066 | -6.67291 | 37926 ft | 497 kts | 41° |
| 2026-05-07 20:54 | 40.74965 | -6.60851 | 37929 ft | 497 kts | 41° |
| 2026-05-07 20:54 | 40.79853 | -6.54399 | 37931 ft | 496 kts | 41° |
| 2026-05-07 20:55 | 40.84720 | -6.47951 | 37937 ft | 496 kts | 41° |
| 2026-05-07 20:55 | 40.89586 | -6.41498 | 37941 ft | 495 kts | 41° |
| 2026-05-07 20:56 | 40.94449 | -6.35041 | 37945 ft | 494 kts | 41° |
| 2026-05-07 20:56 | 40.99289 | -6.28589 | 37942 ft | 493 kts | 40° |
| 2026-05-07 20:57 | 41.04278 | -6.22395 | 37947 ft | 490 kts | 37° |
| 2026-05-07 20:57 | 41.09402 | -6.16461 | 37951 ft | 488 kts | 36° |
| 2026-05-07 20:58 | 41.14476 | -6.10544 | 37957 ft | 488 kts | 37° |
| 2026-05-07 20:58 | 41.19525 | -6.04507 | 37941 ft | 488 kts | 37° |
| 2026-05-07 20:59 | 41.24536 | -5.98440 | 37950 ft | 487 kts | 37° |
| 2026-05-07 20:59 | 41.29550 | -5.92381 | 37955 ft | 486 kts | 37° |
| 2026-05-07 21:00 | 41.34551 | -5.86351 | 37957 ft | 485 kts | 37° |
| 2026-05-07 21:00 | 41.39549 | -5.80322 | 37964 ft | 484 kts | 37° |
| 2026-05-07 21:01 | 41.44531 | -5.74294 | 37963 ft | 483 kts | 37° |
| 2026-05-07 21:01 | 41.49496 | -5.68258 | 37969 ft | 482 kts | 38° |
| 2026-05-07 21:02 | 41.53760 | -5.61299 | 37971 ft | 490 kts | 57° |
| 2026-05-07 21:02 | 41.56662 | -5.53045 | 37971 ft | 491 kts | 63° |
| 2026-05-07 21:03 | 41.59421 | -5.44720 | 37968 ft | 490 kts | 63° |
| 2026-05-07 21:03 | 41.62162 | -5.36466 | 37969 ft | 489 kts | 63° |
| 2026-05-07 21:04 | 41.64912 | -5.28157 | 37981 ft | 488 kts | 63° |
| 2026-05-07 21:04 | 41.67640 | -5.19861 | 37984 ft | 487 kts | 63° |
| 2026-05-07 21:05 | 41.70362 | -5.11581 | 37981 ft | 486 kts | 63° |
| 2026-05-07 21:05 | 41.73072 | -5.03316 | 37980 ft | 485 kts | 63° |
| 2026-05-07 21:06 | 41.75773 | -4.95044 | 37982 ft | 485 kts | 63° |
| 2026-05-07 21:06 | 41.78462 | -4.86768 | 37981 ft | 484 kts | 63° |
| 2026-05-07 21:07 | 41.81144 | -4.78494 | 37981 ft | 484 kts | 63° |
| 2026-05-07 21:07 | 41.83831 | -4.70205 | 37979 ft | 484 kts | 63° |
| 2026-05-07 21:08 | 41.86511 | -4.61918 | 37982 ft | 484 kts | 63° |
| 2026-05-07 21:08 | 41.89180 | -4.53617 | 37988 ft | 485 kts | 63° |
| 2026-05-07 21:09 | 41.91823 | -4.45346 | 37979 ft | 485 kts | 64° |
| 2026-05-07 21:09 | 41.94472 | -4.37024 | 37980 ft | 485 kts | 63° |
| 2026-05-07 21:10 | 41.97132 | -4.28677 | 37989 ft | 486 kts | 63° |
| 2026-05-07 21:10 | 41.99787 | -4.20326 | 37986 ft | 486 kts | 63° |
| 2026-05-07 21:11 | 42.02429 | -4.11962 | 37986 ft | 486 kts | 64° |
| 2026-05-07 21:11 | 42.06642 | -3.99601 | 37988 ft | 483 kts | 60° |
| 2026-05-07 21:12 | 42.09600 | -3.91481 | 37996 ft | 483 kts | 60° |
| 2026-05-07 21:12 | 42.12505 | -3.83338 | 37993 ft | 482 kts | 61° |
| 2026-05-07 21:13 | 42.15358 | -3.75176 | 37983 ft | 481 kts | 61° |
| 2026-05-07 21:13 | 42.17713 | -3.68392 | 38003 ft | 480 kts | 62° |
| 2026-05-07 21:14 | 42.20543 | -3.60238 | 37999 ft | 479 kts | 61° |
| 2026-05-07 21:14 | 42.23374 | -3.52113 | 38010 ft | 478 kts | 62° |
| 2026-05-07 21:15 | 42.26189 | -3.43995 | 38001 ft | 477 kts | 62° |
| 2026-05-07 21:15 | 42.28972 | -3.35928 | 37998 ft | 476 kts | 62° |
| 2026-05-07 21:16 | 42.31764 | -3.27825 | 38008 ft | 475 kts | 62° |
| 2026-05-07 21:16 | 42.34552 | -3.19731 | 37986 ft | 475 kts | 62° |
| 2026-05-07 21:17 | 42.37319 | -3.11640 | 37986 ft | 474 kts | 62° |
| 2026-05-07 21:17 | 42.40084 | -3.03519 | 37984 ft | 474 kts | 62° |
| 2026-05-07 21:18 | 42.42854 | -2.95424 | 37987 ft | 473 kts | 59° |
| 2026-05-07 21:18 | 42.46650 | -2.88306 | 37984 ft | 463 kts | 40° |
| 2026-05-07 21:19 | 42.51761 | -2.83220 | 37981 ft | 452 kts | 24° |
| 2026-05-07 21:19 | 42.57274 | -2.79085 | 37970 ft | 453 kts | 24° |
| 2026-05-07 21:20 | 42.58557 | -2.78118 | 37968 ft | 453 kts | 24° |
| 2026-05-07 21:25 | 42.62118 | -2.75448 | 37974 ft | 453 kts | 24° |
| 2026-05-07 21:25 | 42.67628 | -2.71259 | 37971 ft | 454 kts | 25° |
| 2026-05-07 21:26 | 42.72595 | -2.67455 | 37967 ft | 454 kts | 25° |
| 2026-05-07 21:26 | 42.78094 | -2.63262 | 37971 ft | 455 kts | 25° |
| 2026-05-07 21:27 | 42.83618 | -2.59066 | 37968 ft | 455 kts | 25° |
| 2026-05-07 21:27 | 42.89150 | -2.54844 | 37965 ft | 455 kts | 25° |
| 2026-05-07 21:28 | 42.94674 | -2.50606 | 37965 ft | 456 kts | 25° |
| 2026-05-07 21:28 | 43.00205 | -2.46361 | 37965 ft | 456 kts | 25° |
| 2026-05-07 21:29 | 43.05740 | -2.42104 | 37963 ft | 456 kts | 25° |
| 2026-05-07 21:29 | 43.11270 | -2.37847 | 37953 ft | 456 kts | 25° |
| 2026-05-07 21:30 | 43.16806 | -2.33581 | 37948 ft | 457 kts | 26° |
| 2026-05-07 21:30 | 43.22344 | -2.29290 | 37937 ft | 457 kts | 26° |
| 2026-05-07 21:31 | 43.27838 | -2.25013 | 37944 ft | 457 kts | 26° |
| 2026-05-07 21:31 | 43.33412 | -2.20682 | 37938 ft | 457 kts | 26° |
| 2026-05-07 21:32 | 43.38914 | -2.16402 | 37943 ft | 458 kts | 26° |
| 2026-05-07 21:32 | 43.44461 | -2.12078 | 37936 ft | 458 kts | 26° |
| 2026-05-07 21:33 | 43.50002 | -2.07752 | 37938 ft | 458 kts | 26° |
| 2026-05-07 21:33 | 43.55546 | -2.03400 | 37936 ft | 458 kts | 26° |
| 2026-05-07 21:34 | 43.61086 | -1.99046 | 37935 ft | 458 kts | 26° |
| 2026-05-07 21:34 | 43.66627 | -1.94682 | 37935 ft | 459 kts | 26° |
| 2026-05-07 21:35 | 43.72135 | -1.90330 | 37940 ft | 459 kts | 26° |
| 2026-05-07 21:35 | 43.77682 | -1.85950 | 37938 ft | 459 kts | 26° |
| 2026-05-07 21:36 | 43.83233 | -1.81557 | 37937 ft | 460 kts | 26° |
| 2026-05-07 21:36 | 43.88782 | -1.77154 | 37933 ft | 460 kts | 27° |
| 2026-05-07 21:37 | 43.94342 | -1.72730 | 37938 ft | 460 kts | 27° |
| 2026-05-07 21:37 | 43.99905 | -1.68296 | 37942 ft | 461 kts | 27° |
| 2026-05-07 21:38 | 44.05464 | -1.63852 | 37941 ft | 461 kts | 27° |
| 2026-05-07 21:38 | 44.11027 | -1.59395 | 37945 ft | 461 kts | 27° |
| 2026-05-07 21:39 | 44.16597 | -1.54916 | 37946 ft | 462 kts | 27° |
| 2026-05-07 21:39 | 44.22125 | -1.50470 | 37954 ft | 462 kts | 27° |
| 2026-05-07 21:40 | 44.27694 | -1.45977 | 37956 ft | 462 kts | 27° |
| 2026-05-07 21:40 | 44.33263 | -1.41471 | 37953 ft | 463 kts | 27° |
| 2026-05-07 21:41 | 44.38836 | -1.36956 | 37954 ft | 463 kts | 28° |
| 2026-05-07 21:41 | 44.44413 | -1.32435 | 37960 ft | 463 kts | 28° |
| 2026-05-07 21:42 | 44.49931 | -1.27948 | 37964 ft | 464 kts | 28° |
| 2026-05-07 21:42 | 44.55516 | -1.23382 | 37964 ft | 464 kts | 28° |
| 2026-05-07 21:43 | 44.61100 | -1.18808 | 37971 ft | 465 kts | 28° |
| 2026-05-07 21:43 | 44.66693 | -1.14235 | 37970 ft | 465 kts | 28° |
| 2026-05-07 21:44 | 44.72284 | -1.09648 | 37977 ft | 465 kts | 28° |
| 2026-05-07 21:44 | 44.77655 | -1.05222 | 37986 ft | 465 kts | 28° |
| 2026-05-07 21:45 | 44.83246 | -1.00618 | 37986 ft | 466 kts | 28° |
| 2026-05-07 21:45 | 44.88849 | -0.95996 | 37987 ft | 466 kts | 28° |
| 2026-05-07 21:46 | 44.94440 | -0.91364 | 37988 ft | 466 kts | 28° |
| 2026-05-07 21:46 | 45.00027 | -0.86713 | 37988 ft | 466 kts | 28° |
| 2026-05-07 21:47 | 45.05616 | -0.82058 | 37991 ft | 466 kts | 28° |
| 2026-05-07 21:47 | 45.11207 | -0.77407 | 37994 ft | 466 kts | 28° |
| 2026-05-07 21:48 | 45.16785 | -0.72745 | 37998 ft | 466 kts | 28° |
| 2026-05-07 21:48 | 45.22334 | -0.68099 | 37998 ft | 466 kts | 29° |
| 2026-05-07 21:49 | 45.27909 | -0.63422 | 37997 ft | 465 kts | 29° |
| 2026-05-07 21:49 | 45.33478 | -0.58725 | 37989 ft | 465 kts | 29° |
| 2026-05-07 21:50 | 45.39051 | -0.54022 | 37987 ft | 465 kts | 29° |
| 2026-05-07 21:50 | 45.44614 | -0.49310 | 37996 ft | 465 kts | 29° |
| 2026-05-07 21:51 | 45.50173 | -0.44609 | 37992 ft | 465 kts | 29° |
| 2026-05-07 21:51 | 45.55743 | -0.39878 | 37987 ft | 465 kts | 29° |
| 2026-05-07 21:52 | 45.61263 | -0.35165 | 37995 ft | 465 kts | 29° |
| 2026-05-07 21:52 | 45.66723 | -0.30208 | 37992 ft | 466 kts | 38° |
| 2026-05-07 21:53 | 45.71663 | -0.24194 | 37993 ft | 466 kts | 39° |
| 2026-05-07 21:53 | 45.76611 | -0.18173 | 37989 ft | 467 kts | 39° |
| 2026-05-07 21:54 | 45.81558 | -0.12134 | 37989 ft | 467 kts | 39° |
| 2026-05-07 21:54 | 45.86501 | -0.06071 | 37988 ft | 467 kts | 39° |
| 2026-05-07 21:55 | 45.91433 | -0.00004 | 37991 ft | 467 kts | 39° |
| 2026-05-07 21:55 | 45.96362 | 0.06074 | 37988 ft | 467 kts | 40° |
| 2026-05-07 21:56 | 46.01267 | 0.12136 | 37995 ft | 467 kts | 40° |
| 2026-05-07 21:56 | 46.06189 | 0.18223 | 38005 ft | 467 kts | 40° |
| 2026-05-07 21:57 | 46.11120 | 0.24335 | 38009 ft | 467 kts | 40° |
| 2026-05-07 21:57 | 46.16032 | 0.30449 | 38004 ft | 467 kts | 40° |
| 2026-05-07 21:58 | 46.20941 | 0.36581 | 38014 ft | 467 kts | 40° |
| 2026-05-07 21:58 | 46.25858 | 0.42717 | 38017 ft | 467 kts | 40° |
| 2026-05-07 21:59 | 46.30732 | 0.48832 | 38016 ft | 467 kts | 40° |
| 2026-05-07 21:59 | 46.35629 | 0.54999 | 38016 ft | 467 kts | 40° |
| 2026-05-07 22:00 | 46.40533 | 0.61180 | 38014 ft | 467 kts | 40° |
| 2026-05-07 22:00 | 46.45428 | 0.67357 | 37972 ft | 466 kts | 40° |
| 2026-05-07 22:01 | 46.47859 | 0.70432 | 37687 ft | 459 kts | 40° |
| 2026-05-07 22:01 | 46.50238 | 0.73447 | 37414 ft | 450 kts | 40° |
| 2026-05-07 22:01 | 46.52726 | 0.76131 | 37151 ft | 441 kts | 30° |
| 2026-05-07 22:01 | 46.55444 | 0.78148 | 36886 ft | 435 kts | 20° |
| 2026-05-07 22:02 | 46.57322 | 0.79108 | 36722 ft | 432 kts | 13° |
| 2026-05-07 22:02 | 46.61217 | 0.80384 | 36372 ft | 428 kts | 10° |
| 2026-05-07 22:02 | 46.63143 | 0.80982 | 36202 ft | 426 kts | 10° |
| 2026-05-07 22:02 | 46.66038 | 0.81895 | 35955 ft | 425 kts | 11° |
| 2026-05-07 22:03 | 46.69850 | 0.83113 | 35621 ft | 422 kts | 11° |
| 2026-05-07 22:03 | 46.72711 | 0.84031 | 35370 ft | 419 kts | 11° |
| 2026-05-07 22:03 | 46.75546 | 0.84940 | 34941 ft | 416 kts | 11° |
| 2026-05-07 22:03 | 46.77457 | 0.85547 | 34647 ft | 415 kts | 11° |
| 2026-05-07 22:04 | 46.80275 | 0.86437 | 34214 ft | 413 kts | 11° |
| 2026-05-07 22:04 | 46.83047 | 0.87308 | 33753 ft | 412 kts | 11° |
| 2026-05-07 22:04 | 46.85829 | 0.88183 | 33336 ft | 408 kts | 10° |
| 2026-05-07 22:04 | 46.88590 | 0.89053 | 32928 ft | 404 kts | 10° |
| 2026-05-07 22:05 | 46.91321 | 0.89917 | 32542 ft | 399 kts | 10° |
| 2026-05-07 22:05 | 46.94025 | 0.90776 | 32145 ft | 396 kts | 10° |
| 2026-05-07 22:05 | 46.96703 | 0.91633 | 31766 ft | 392 kts | 10° |
| 2026-05-07 22:05 | 46.99355 | 0.92485 | 31362 ft | 389 kts | 10° |
| 2026-05-07 22:06 | 47.01988 | 0.93331 | 30967 ft | 386 kts | 10° |
| 2026-05-07 22:06 | 47.04600 | 0.94165 | 30563 ft | 383 kts | 9° |
| 2026-05-07 22:06 | 47.07203 | 0.94996 | 30160 ft | 381 kts | 9° |
| 2026-05-07 22:06 | 47.09783 | 0.95819 | 29714 ft | 379 kts | 9° |
| 2026-05-07 22:07 | 47.12348 | 0.96637 | 29308 ft | 375 kts | 9° |
| 2026-05-07 22:07 | 47.14887 | 0.97448 | 28895 ft | 372 kts | 10° |
| 2026-05-07 22:07 | 47.17404 | 0.98252 | 28467 ft | 369 kts | 10° |
| 2026-05-07 22:07 | 47.19901 | 0.99051 | 28043 ft | 366 kts | 10° |
| 2026-05-07 22:08 | 47.22384 | 0.99849 | 27622 ft | 364 kts | 10° |
| 2026-05-07 22:08 | 47.24850 | 1.00642 | 27195 ft | 362 kts | 10° |
| 2026-05-07 22:08 | 47.27302 | 1.01426 | 26773 ft | 360 kts | 10° |
| 2026-05-07 22:08 | 47.29748 | 1.02208 | 26347 ft | 358 kts | 10° |
| 2026-05-07 22:09 | 47.32179 | 1.02986 | 25923 ft | 357 kts | 10° |
| 2026-05-07 22:09 | 47.34602 | 1.03764 | 25496 ft | 356 kts | 11° |
| 2026-05-07 22:09 | 47.37013 | 1.04539 | 25072 ft | 355 kts | 11° |
| 2026-05-07 22:09 | 47.39420 | 1.05314 | 24647 ft | 353 kts | 11° |
| 2026-05-07 22:10 | 47.41826 | 1.06094 | 24226 ft | 352 kts | 11° |
| 2026-05-07 22:10 | 47.44172 | 1.07097 | 23862 ft | 350 kts | 18° |
| 2026-05-07 22:10 | 47.46427 | 1.08277 | 23455 ft | 349 kts | 18° |
| 2026-05-07 22:10 | 47.48710 | 1.09452 | 23084 ft | 344 kts | 18° |
| 2026-05-07 22:11 | 47.50977 | 1.10607 | 22640 ft | 343 kts | 18° |
| 2026-05-07 22:11 | 47.53229 | 1.11746 | 22223 ft | 341 kts | 18° |
| 2026-05-07 22:11 | 47.55465 | 1.12873 | 21890 ft | 338 kts | 18° |
| 2026-05-07 22:11 | 47.57691 | 1.13995 | 21480 ft | 337 kts | 18° |
| 2026-05-07 22:12 | 47.59897 | 1.15113 | 21089 ft | 336 kts | 18° |
| 2026-05-07 22:12 | 47.62098 | 1.16230 | 20789 ft | 332 kts | 18° |
| 2026-05-07 22:12 | 47.64281 | 1.17339 | 20401 ft | 331 kts | 18° |
| 2026-05-07 22:12 | 47.66460 | 1.18449 | 19987 ft | 331 kts | 18° |
| 2026-05-07 22:13 | 47.68619 | 1.19549 | 19738 ft | 326 kts | 18° |
| 2026-05-07 22:13 | 47.70762 | 1.20641 | 19392 ft | 325 kts | 18° |
| 2026-05-07 22:13 | 47.72898 | 1.21730 | 19063 ft | 324 kts | 18° |
| 2026-05-07 22:13 | 47.75028 | 1.22816 | 18736 ft | 323 kts | 18° |
| 2026-05-07 22:14 | 47.77143 | 1.23896 | 18430 ft | 321 kts | 18° |
| 2026-05-07 22:14 | 47.79249 | 1.24975 | 18099 ft | 319 kts | 18° |
| 2026-05-07 22:14 | 47.81316 | 1.26035 | 17765 ft | 317 kts | 18° |
| 2026-05-07 22:14 | 47.83399 | 1.27106 | 17434 ft | 316 kts | 18° |
| 2026-05-07 22:15 | 47.85468 | 1.28170 | 17124 ft | 314 kts | 18° |
| 2026-05-07 22:15 | 47.87524 | 1.29227 | 16809 ft | 312 kts | 18° |
| 2026-05-07 22:15 | 47.89564 | 1.30275 | 16500 ft | 310 kts | 18° |
| 2026-05-07 22:15 | 47.91596 | 1.31323 | 16204 ft | 308 kts | 18° |
| 2026-05-07 22:16 | 47.93622 | 1.32363 | 15912 ft | 306 kts | 18° |
| 2026-05-07 22:16 | 47.95627 | 1.33392 | 15629 ft | 304 kts | 18° |
| 2026-05-07 22:16 | 47.97625 | 1.34422 | 15342 ft | 303 kts | 19° |
| 2026-05-07 22:16 | 47.99612 | 1.35449 | 15060 ft | 301 kts | 18° |
| 2026-05-07 22:17 | 48.01588 | 1.36469 | 14788 ft | 300 kts | 18° |
| 2026-05-07 22:17 | 48.03549 | 1.37482 | 14516 ft | 298 kts | 18° |
| 2026-05-07 22:17 | 48.05494 | 1.38525 | 14240 ft | 296 kts | 24° |
| 2026-05-07 22:17 | 48.07275 | 1.40056 | 13972 ft | 295 kts | 34° |
| 2026-05-07 22:18 | 48.08966 | 1.41774 | 13649 ft | 292 kts | 34° |
| 2026-05-07 22:18 | 48.12310 | 1.45159 | 12507 ft | 288 kts | 33° |
| 2026-05-07 22:18 | 48.13965 | 1.46830 | 11952 ft | 286 kts | 33° |
| 2026-05-07 22:19 | 48.15597 | 1.48478 | 11592 ft | 281 kts | 33° |
| 2026-05-07 22:19 | 48.17212 | 1.50111 | 11298 ft | 279 kts | 33° |
| 2026-05-07 22:19 | 48.18803 | 1.51718 | 11018 ft | 279 kts | 33° |
| 2026-05-07 22:19 | 48.20424 | 1.53361 | 10724 ft | 277 kts | 33° |
| 2026-05-07 22:20 | 48.21933 | 1.54893 | 10451 ft | 276 kts | 33° |
| 2026-05-07 22:21 | 48.22159 | 1.55123 | 10410 ft | 276 kts | 33° |
| 2026-05-07 22:21 | 48.23743 | 1.56736 | 10115 ft | 275 kts | 33° |
| 2026-05-07 22:22 | 48.25297 | 1.58392 | 9828 ft | 273 kts | 36° |
| 2026-05-07 22:22 | 48.26806 | 1.60126 | 9527 ft | 272 kts | 37° |
| 2026-05-07 22:22 | 48.28285 | 1.61883 | 9240 ft | 270 kts | 37° |
| 2026-05-07 22:22 | 48.29728 | 1.63609 | 8966 ft | 268 kts | 37° |
| 2026-05-07 22:23 | 48.31178 | 1.65343 | 8682 ft | 266 kts | 37° |
| 2026-05-07 22:23 | 48.32623 | 1.67064 | 8401 ft | 264 kts | 37° |
| 2026-05-07 22:23 | 48.34058 | 1.68770 | 8122 ft | 262 kts | 37° |
| 2026-05-07 22:23 | 48.35484 | 1.70464 | 7847 ft | 260 kts | 37° |
| 2026-05-07 22:24 | 48.36903 | 1.72146 | 7578 ft | 259 kts | 37° |
| 2026-05-07 22:24 | 48.38313 | 1.73815 | 7301 ft | 257 kts | 37° |
| 2026-05-07 22:24 | 48.39713 | 1.75473 | 7036 ft | 255 kts | 37° |
| 2026-05-07 22:24 | 48.41106 | 1.77122 | 6765 ft | 254 kts | 37° |
| 2026-05-07 22:25 | 48.42490 | 1.78760 | 6501 ft | 252 kts | 36° |
| 2026-05-07 22:25 | 48.43866 | 1.80388 | 6222 ft | 251 kts | 36° |
| 2026-05-07 22:25 | 48.45236 | 1.82008 | 5952 ft | 250 kts | 37° |
| 2026-05-07 22:25 | 48.46599 | 1.83622 | 5688 ft | 249 kts | 37° |
| 2026-05-07 22:26 | 48.47955 | 1.85229 | 5438 ft | 247 kts | 37° |
| 2026-05-07 22:26 | 48.49174 | 1.86676 | 5177 ft | 247 kts | 37° |
| 2026-05-07 22:26 | 48.50516 | 1.88270 | 4948 ft | 242 kts | 37° |
| 2026-05-07 22:26 | 48.51823 | 1.89827 | 4749 ft | 236 kts | 37° |
| 2026-05-07 22:27 | 48.53084 | 1.91330 | 4645 ft | 226 kts | 37° |
| 2026-05-07 22:27 | 48.54290 | 1.92770 | 4544 ft | 217 kts | 37° |
| 2026-05-07 22:27 | 48.55435 | 1.94136 | 4452 ft | 208 kts | 37° |
| 2026-05-07 22:27 | 48.56548 | 1.95464 | 4363 ft | 200 kts | 38° |
| 2026-05-07 22:28 | 48.57620 | 1.96745 | 4297 ft | 191 kts | 38° |
| 2026-05-07 22:28 | 48.58626 | 1.97945 | 4202 ft | 178 kts | 38° |
| 2026-05-07 22:28 | 48.59564 | 1.99064 | 4108 ft | 167 kts | 38° |
| 2026-05-07 22:28 | 48.60445 | 2.00123 | 4028 ft | 157 kts | 41° |
| 2026-05-07 22:29 | 48.61084 | 2.01384 | 4009 ft | 149 kts | 57° |
| 2026-05-07 22:29 | 48.61622 | 2.02724 | 4013 ft | 149 kts | 59° |
| 2026-05-07 22:29 | 48.62135 | 2.04083 | 4009 ft | 148 kts | 60° |
| 2026-05-07 22:29 | 48.62634 | 2.05446 | 4012 ft | 149 kts | 60° |
| 2026-05-07 22:30 | 48.63125 | 2.06802 | 3986 ft | 150 kts | 60° |
| 2026-05-07 22:30 | 48.63622 | 2.08184 | 3846 ft | 149 kts | 61° |
| 2026-05-07 22:30 | 48.64114 | 2.09557 | 3672 ft | 148 kts | 61° |
| 2026-05-07 22:30 | 48.64605 | 2.10927 | 3483 ft | 148 kts | 61° |
| 2026-05-07 22:31 | 48.65093 | 2.12293 | 3287 ft | 147 kts | 61° |
| 2026-05-07 22:31 | 48.65580 | 2.13658 | 3088 ft | 147 kts | 60° |
| 2026-05-07 22:31 | 48.66055 | 2.14988 | 2889 ft | 147 kts | 61° |
| 2026-05-07 22:31 | 48.66541 | 2.16350 | 2704 ft | 146 kts | 61° |
| 2026-05-07 22:32 | 48.67015 | 2.17679 | 2517 ft | 140 kts | 60° |
| 2026-05-07 22:32 | 48.67469 | 2.18953 | 2315 ft | 136 kts | 60° |
| 2026-05-07 22:32 | 48.67915 | 2.20206 | 2127 ft | 135 kts | 60° |
| 2026-05-07 22:32 | 48.68354 | 2.21437 | 1941 ft | 134 kts | 60° |
| 2026-05-07 22:33 | 48.68793 | 2.22673 | 1765 ft | 133 kts | 60° |
| 2026-05-07 22:33 | 48.69230 | 2.23901 | 1603 ft | 132 kts | 60° |
| 2026-05-07 22:33 | 48.69665 | 2.25123 | 1427 ft | 132 kts | 60° |
| 2026-05-07 22:33 | 48.70099 | 2.26344 | 1224 ft | 132 kts | 61° |
| 2026-05-07 22:34 | 48.70533 | 2.27567 | 1028 ft | 132 kts | 62° |
| 2026-05-07 22:34 | 48.70968 | 2.28791 | 828 ft | 132 kts | 62° |
| 2026-05-07 22:34 | 48.71403 | 2.30013 | 646 ft | 132 kts | 62° |
| 2026-05-07 22:34 | 48.71841 | 2.31235 | 409 ft | 130 kts | 63° |
| 2026-05-07 22:35 | 48.72252 | 2.32446 | 299 ft | 129 kts | 61° |
| 2026-05-07 22:35 | 48.72603 | 2.33408 | 295 ft | 65 kts | 62° |
| 2026-05-07 22:35 | 48.72682 | 2.33631 | 295 ft | 3 kts | 62° |
| 2026-05-07 22:35 | 48.72757 | 2.33866 | 297 ft | 34 kts | 73° |
| 2026-05-07 22:36 | 48.72788 | 2.34214 | 293 ft | 33 kts | 82° |
| 2026-05-07 22:36 | 48.72820 | 2.34556 | 296 ft | 32 kts | 81° |
| 2026-05-07 22:36 | 48.72853 | 2.34887 | 295 ft | 29 kts | 84° |
| 2026-05-07 22:36 | 48.72864 | 2.35010 | 297 ft | 0 kts | 81° |
| 2026-05-07 22:41 | 48.72867 | 2.35046 | 293 ft | 8 kts | 81° |
| 2026-05-07 22:41 | 48.72877 | 2.35168 | 297 ft | 15 kts | 84° |
| 2026-05-07 22:41 | 48.72899 | 2.35333 | 295 ft | 17 kts | 77° |
| 2026-05-07 22:41 | 48.72924 | 2.35504 | 297 ft | 14 kts | 40° |
| 2026-05-07 22:42 | 48.73014 | 2.35572 | 298 ft | 15 kts | 38° |
| 2026-05-07 22:42 | 48.73080 | 2.35710 | 296 ft | 17 kts | 56° |
| 2026-05-07 22:42 | 48.73133 | 2.35835 | 299 ft | 15 kts | 57° |
| 2026-05-07 22:42 | 48.73177 | 2.35938 | 295 ft | 12 kts | 57° |
| 2026-05-07 22:43 | 48.73209 | 2.36013 | 295 ft | 0 kts | 57° |
| 2026-05-07 22:43 | 48.73209 | 2.36014 | 295 ft | 0 kts | 57° |
| 2026-05-07 22:43 | 48.73202 | 2.35997 | 297 ft | 3 kts | 68° |
| 2026-05-07 22:44 | 48.73198 | 2.35971 | 296 ft | 3 kts | 105° |
| 2026-05-07 22:44 | 48.73199 | 2.35965 | 298 ft | 1 kts | 112° |
| 2026-05-07 22:44 | 48.73192 | 2.35987 | 296 ft | 4 kts | 120° |
| 2026-05-07 22:44 | 48.73159 | 2.36022 | 295 ft | 7 kts | 156° |
| 2026-05-07 22:45 | 48.73140 | 2.36034 | 297 ft | 1 kts | 157° |
| 2026-05-07 22:45 | 48.73133 | 2.36039 | 298 ft | 0 kts | 157° |